This is the latest recevied weather packets stored in our database for station/object 9W2CEW-1. If no packets are shown the sender has not sent any weather packets the latest 10 day(s).
| Time | Temp. | Humidity | Pressure | Rain* | Wind** | Luminosity | Snow |
|---|---|---|---|---|---|---|---|
| 1777208961 | 28.33° C | 94% | 1003.3 hPa | - | - | - | - |
| 1777208099 | 28.33° C | 93% | 1002.9 hPa | - | - | - | - |
| 1777208062 | 28.33° C | 93% | 1002.9 hPa | - | - | - | - |
| 1777207161 | 28.33° C | 93% | 1002.7 hPa | - | - | - | - |
| 1777206296 | 28.33° C | 92% | 1002.4 hPa | - | - | - | - |
| 1777206264 | 28.33° C | 92% | 1002.4 hPa | - | - | - | - |
| 1777205361 | 28.33° C | 94% | 1002.2 hPa | - | - | - | - |
| 1777204461 | 28.89° C | 94% | 1002.1 hPa | - | - | - | - |
| 1777203561 | 28.89° C | 91% | 1001.7 hPa | - | - | - | - |
| 1777202660 | 29.44° C | 91% | 1001.4 hPa | - | - | - | - |
| 1777201762 | 29.44° C | 89% | 1001 hPa | - | - | - | - |
| 1777200860 | 30° C | 84% | 1000.9 hPa | - | - | - | - |
| 1777199960 | 31.67° C | 69% | 1000.8 hPa | - | - | - | - |
| 1777199060 | 32.22° C | 67% | 1000.6 hPa | - | - | - | - |
| 1777198160 | 31.67° C | 66% | 1000.5 hPa | - | - | - | - |
| 1777197260 | 32.22° C | 66% | 1000.6 hPa | - | - | - | - |
| 1777196360 | 32.22° C | 65% | 1000.4 hPa | - | - | - | - |
| 1777195460 | 32.22° C | 66% | 1000.4 hPa | - | - | - | - |
| 1777194560 | 32.22° C | 67% | 1000.6 hPa | - | - | - | - |
| 1777193702 | 32.22° C | 68% | 1000.5 hPa | - | - | - | - |
| 1777193659 | 32.22° C | 68% | 1000.5 hPa | - | - | - | - |
| 1777192759 | 32.78° C | 59% | 1000.5 hPa | - | - | - | - |
| 1777191859 | 32.78° C | 60% | 1000.4 hPa | - | - | - | - |
| 1777191009 | 33.33° C | 57% | 1000.7 hPa | - | - | - | - |
| 1777190959 | 33.33° C | 57% | 1000.7 hPa | - | - | - | - |
* Rain since midnight (hover to see other rain measurements)
** Current wind speed in m/s (hover to see current wind gust speed)